Time;durP1;ratioP1;P1;durP2;ratioP2;P2;SDS_P1;SDS_P2;PMS_P1;PMS_P2;Temp;Humidity;BMP_temperature;BMP_pressure;BME280_temperature;BME280_humidity;BME280_pressure;Samples;Min_cycle;Max_cycle;Signal;HPM_P1;HPM_P2
2022/10/03 05:31:56;;;;;;;1.12;0.98;;;;;;;19.55;57.47;99760.28;1925925;72;28055;-74
2022/10/03 05:34:51;;;;;;;0.68;0.68;;;;;;;19.94;57.00;99771.19;1901712;75;28082;-75
2022/10/03 05:38:04;;;;;;;0.70;0.70;;;;;;;20.79;55.50;99761.50;1880673;73;28142;-75
2022/10/03 05:41:05;;;;;;;0.90;0.90;;;;;;;21.49;54.05;99764.61;1918655;73;28098;-75
2022/10/03 05:44:05;;;;;;;0.80;0.80;;;;;;;22.10;52.71;99767.48;1900775;73;28103;-76
2022/10/03 05:46:59;;;;;;;0.80;0.80;;;;;;;22.57;51.75;99776.90;1900891;73;28134;-77
2022/10/03 05:50:12;;;;;;;2.80;0.80;;;;;;;22.95;50.80;99771.22;1900803;75;28510;-76
2022/10/03 05:53:03;;;;;;;0.90;0.75;;;;;;;23.22;50.02;99773.37;1918168;73;28069;-76
2022/10/03 05:56:10;;;;;;;0.70;0.60;;;;;;;23.48;49.29;99770.01;1901864;73;28186;-76
2022/10/03 05:59:20;;;;;;;1.10;0.82;;;;;;;23.66;48.69;99782.27;1902728;73;28044;-76
2022/10/03 06:02:20;;;;;;;0.72;0.72;;;;;;;23.81;48.52;99777.16;1902914;73;27982;-76
2022/10/03 06:05:21;;;;;;;0.70;0.70;;;;;;;23.91;48.24;99772.78;1910968;73;28016;-76
2022/10/03 06:08:43;;;;;;;0.72;0.72;;;;;;;24.07;47.97;99783.62;1917955;73;28168;-75
2022/10/03 06:11:40;;;;;;;0.80;0.80;;;;;;;24.16;47.74;99778.60;1905500;73;28048;-77
2022/10/03 06:14:34;;;;;;;1.80;0.80;;;;;;;24.24;47.47;99779.11;1902878;73;28259;-75
2022/10/03 09:44:24;;;;;;;1.62;0.85;;;;;;;20.11;56.63;99865.17;1931948;72;28069;-70
2022/10/03 09:47:33;;;;;;;2.30;0.80;;;;;;;20.48;56.13;99865.08;1908733;73;28139;-69
2022/10/03 09:50:41;;;;;;;0.70;0.60;;;;;;;21.34;54.64;99855.60;1904042;73;28140;-71
2022/10/03 09:53:56;;;;;;;1.40;0.80;;;;;;;22.06;53.34;99855.17;1902079;75;28027;-69
2022/10/03 09:56:57;;;;;;;0.68;0.60;;;;;;;22.60;52.22;99854.48;1902025;75;28009;-72
2022/10/03 09:59:57;;;;;;;0.60;0.60;;;;;;;23.05;51.05;99844.97;1878917;75;28075;-73
2022/10/03 10:02:54;;;;;;;0.82;0.82;;;;;;;23.43;50.16;99846.63;1903819;73;28089;-73
2022/10/03 10:06:17;;;;;;;2.75;0.65;;;;;;;23.69;49.47;99845.70;1900651;75;28068;-73
2022/10/03 10:09:24;;;;;;;1.52;0.60;;;;;;;23.91;48.82;99852.35;1916309;73;28167;-73
2022/10/03 10:12:31;;;;;;;1.72;0.70;;;;;;;24.09;48.19;99845.97;1923261;73;28030;-73
2022/10/03 10:15:54;;;;;;;0.68;0.60;;;;;;;24.25;47.66;99847.20;1901797;75;28078;-73
2022/10/03 10:18:48;;;;;;;0.50;0.50;;;;;;;24.37;47.16;99845.28;1902215;73;28174;-73
2022/10/03 10:21:56;;;;;;;0.57;0.57;;;;;;;24.46;46.77;99826.00;1883032;75;28134;-74
2022/10/03 10:25:04;;;;;;;0.70;0.70;;;;;;;24.56;46.37;99831.21;1877237;73;28014;-74
2022/10/03 10:28:13;;;;;;;0.50;0.50;;;;;;;24.63;46.02;99826.43;1912839;73;28048;-74
2022/10/03 10:31:06;;;;;;;0.60;0.60;;;;;;;24.62;45.80;99815.69;1912862;73;28015;-74
2022/10/03 10:34:30;;;;;;;0.90;0.50;;;;;;;24.72;45.55;99818.65;1902228;73;30011;-73
2022/10/03 10:37:42;;;;;;;0.73;0.67;;;;;;;24.79;45.35;99819.39;1903623;73;28216;-73
2022/10/03 10:40:50;;;;;;;0.70;0.57;;;;;;;24.81;45.17;99815.05;1902222;75;28075;-74
2022/10/03 10:44:02;;;;;;;0.50;0.50;;;;;;;24.82;45.01;99808.45;1902464;74;28294;-72
2022/10/03 10:47:16;;;;;;;0.80;0.80;;;;;;;24.84;44.93;99807.67;1913382;73;28147;-71
2022/10/03 10:50:10;;;;;;;37.80;10.58;;;;;;;24.84;44.93;99807.14;1814154;78;28283;-70
2022/10/03 10:53:36;;;;;;;21.33;7.60;;;;;;;24.87;45.53;99798.42;1888924;75;28709;-71
2022/10/03 10:56:30;;;;;;;8.38;3.20;;;;;;;24.94;46.13;99778.52;1889257;75;28699;-73
2022/10/03 10:59:46;;;;;;;5.70;1.85;;;;;;;24.97;45.13;99796.43;1889095;75;28146;-73
2022/10/03 11:03:06;;;;;;;3.77;1.72;;;;;;;25.01;43.77;99790.73;1907571;74;28156;-74
2022/10/03 11:06:24;;;;;;;3.05;1.80;;;;;;;24.93;43.49;99788.35;1922170;74;28125;-73
2022/10/03 11:09:33;;;;;;;2.87;1.45;;;;;;;24.90;43.58;99786.11;1918752;73;28105;-73
2022/10/03 11:12:36;;;;;;;1.62;1.40;;;;;;;24.90;43.80;99784.73;1919576;73;28099;-73
2022/10/03 17:43:31;;;;;;;0.70;0.70;;;;;;;20.19;56.17;99637.72;1945177;72;27893;-70
2022/10/03 17:46:41;;;;;;;0.60;0.60;;;;;;;20.51;56.26;99632.16;1902156;75;28110;-71
2022/10/03 17:49:56;;;;;;;0.93;0.55;;;;;;;21.39;55.39;99637.17;1902254;75;27995;-72
2022/10/03 17:52:44;;;;;;;0.62;0.62;;;;;;;22.09;54.43;99644.61;1916294;73;28044;-73
2022/10/03 17:55:40;;;;;;;0.60;0.60;;;;;;;22.64;53.43;99644.89;1905757;73;27999;-72
2022/10/03 17:58:30;;;;;;;1.30;0.80;;;;;;;23.03;52.60;99649.84;1902291;75;28073;-72
2022/10/03 18:01:22;;;;;;;0.53;0.53;;;;;;;23.46;51.77;99647.38;1902278;75;28076;-73
2022/10/03 18:04:19;;;;;;;0.68;0.68;;;;;;;23.75;51.14;99645.92;1902232;75;28188;-72
2022/10/03 18:07:14;;;;;;;0.68;0.68;;;;;;;23.98;50.47;99656.89;1902245;75;28108;-73
2022/10/03 18:10:05;;;;;;;0.55;0.55;;;;;;;24.17;49.92;99652.13;1902023;75;28154;-74
2022/10/03 18:12:56;;;;;;;0.60;0.60;;;;;;;24.32;49.48;99650.26;1901929;75;29087;-73
2022/10/03 18:16:21;;;;;;;1.40;0.60;;;;;;;24.42;48.95;99647.70;1902968;75;28058;-68
